Time;durP1;ratioP1;P1;durP2;ratioP2;P2;SDS_P1;SDS_P2;PMS_P1;PMS_P2;Temp;Humidity;BMP_temperature;BMP_pressure;BME280_temperature;BME280_humidity;BME280_pressure;Samples;Min_cycle;Max_cycle;Signal;HPM_P1;HPM_P2
2022/11/02 00:02:17;;;;;;;7.15;1.08;;;;;;;7.09;88.18;99965.16;4961381;28;20444;-41
2022/11/02 00:04:44;;;;;;;8.65;1.52;;;;;;;7.09;88.12;99970.66;4972690;28;20130;-42
2022/11/02 00:07:11;;;;;;;10.20;1.90;;;;;;;7.09;87.98;99978.09;4972692;28;20125;-42
2022/11/02 00:09:37;;;;;;;4.93;0.85;;;;;;;7.08;87.80;99968.22;4973078;28;20069;-44
2022/11/02 00:12:05;;;;;;;5.13;1.05;;;;;;;7.08;87.81;99968.22;4971963;28;20043;-42
2022/11/02 00:14:31;;;;;;;7.82;3.08;;;;;;;7.07;87.80;99977.66;4971114;28;20173;-42
2022/11/02 00:16:58;;;;;;;5.57;0.93;;;;;;;7.06;87.38;99970.53;4968807;28;20047;-42
2022/11/02 00:19:24;;;;;;;8.55;2.58;;;;;;;7.06;87.68;99970.53;4972496;28;20047;-42
2022/11/02 00:21:51;;;;;;;5.75;1.45;;;;;;;7.08;87.41;99979.22;4972604;28;20453;-42
2022/11/02 00:24:18;;;;;;;3.35;1.23;;;;;;;7.08;87.45;99991.06;4965963;28;20105;-45
2022/11/02 00:26:44;;;;;;;4.90;1.23;;;;;;;7.10;87.30;99985.19;4969096;28;20109;-42
2022/11/02 00:29:11;;;;;;;7.97;1.42;;;;;;;7.09;87.14;99992.69;4970049;28;20493;-43
2022/11/02 00:31:38;;;;;;;9.02;1.52;;;;;;;7.10;87.20;99987.94;4969854;28;20061;-42
2022/11/02 00:34:04;;;;;;;5.28;0.95;;;;;;;7.10;87.10;99998.97;4970122;28;20054;-42
2022/11/02 00:36:32;;;;;;;5.72;1.17;;;;;;;7.10;86.97;99996.22;4970335;28;20047;-43
2022/11/02 00:38:59;;;;;;;4.72;1.92;;;;;;;7.08;86.96;100001.25;4969791;28;20106;-43
2022/11/02 00:41:26;;;;;;;5.05;1.00;;;;;;;7.06;86.86;100014.56;4971907;28;20504;-42
2022/11/02 00:43:52;;;;;;;4.13;1.00;;;;;;;7.05;86.94;100008.25;4969455;28;20054;-42
2022/11/02 00:46:19;;;;;;;5.10;1.00;;;;;;;7.04;86.79;100000.34;4968669;28;20042;-42
2022/11/02 00:48:45;;;;;;;6.38;1.33;;;;;;;7.03;86.93;100001.47;4968528;28;20046;-42
2022/11/02 00:51:12;;;;;;;5.03;1.38;;;;;;;7.00;86.91;100010.41;4970751;28;20043;-42
2022/11/02 00:53:39;;;;;;;10.85;1.20;;;;;;;7.00;86.86;100002.94;4968344;28;20046;-42
2022/11/02 00:56:06;;;;;;;8.32;1.70;;;;;;;7.01;86.71;100001.81;4966543;28;20054;-42
2022/11/02 00:58:32;;;;;;;6.00;1.27;;;;;;;7.02;86.81;99994.34;4969376;28;20043;-43
2022/11/02 01:01:04;;;;;;;6.28;1.10;;;;;;;7.00;86.55;100000.19;4968064;28;20053;-43
2022/11/02 01:03:31;;;;;;;4.20;2.10;;;;;;;7.01;86.61;99996.31;4965255;28;20133;-42
2022/11/02 01:05:57;;;;;;;5.05;0.85;;;;;;;6.99;86.52;100001.34;4968377;28;20421;-42
2022/11/02 01:08:24;;;;;;;5.55;1.08;;;;;;;6.97;86.62;99997.31;4969691;28;20039;-42
2022/11/02 01:10:51;;;;;;;8.02;0.88;;;;;;;6.96;86.72;100001.22;4971351;28;20046;-42
2022/11/02 01:13:17;;;;;;;2.85;1.00;;;;;;;6.95;86.55;100014.19;4970513;28;20476;-43
2022/11/02 01:15:44;;;;;;;10.10;1.40;;;;;;;6.95;86.44;100013.38;4970696;28;20054;-42
2022/11/02 01:18:10;;;;;;;3.63;0.90;;;;;;;6.94;86.48;100006.25;4971412;28;20042;-43
2022/11/02 01:20:37;;;;;;;6.90;1.35;;;;;;;6.94;86.41;100006.25;4971007;28;20035;-42
2022/11/02 01:23:04;;;;;;;4.82;0.70;;;;;;;6.93;86.40;100005.47;4970706;28;20046;-42
2022/11/02 01:25:30;;;;;;;12.68;3.58;;;;;;;6.94;86.34;99996.03;4969988;28;20405;-48
2022/11/02 01:27:57;;;;;;;5.78;1.10;;;;;;;6.96;86.31;99988.28;4970941;28;20141;-43
2022/11/02 01:30:24;;;;;;;8.20;0.90;;;;;;;6.95;86.22;100002.34;4971322;28;20042;-43
2022/11/02 01:32:50;;;;;;;5.57;1.20;;;;;;;6.98;86.14;99991.50;4970770;28;20042;-44
2022/11/02 01:35:17;;;;;;;3.88;1.08;;;;;;;6.99;86.04;99982.06;4969925;28;20039;-42
2022/11/02 01:37:44;;;;;;;2.25;0.65;;;;;;;7.00;86.00;99988.38;4966305;28;20039;-44
2022/11/02 01:40:11;;;;;;;6.35;1.20;;;;;;;7.00;85.84;99977.38;4968350;28;20448;-42
2022/11/02 01:42:37;;;;;;;3.60;0.80;;;;;;;6.99;85.59;99986.78;4970299;28;20134;-42
2022/11/02 01:45:05;;;;;;;3.17;0.88;;;;;;;6.98;85.70;99980.47;4966764;28;20053;-42
2022/11/02 01:47:37;;;;;;;8.48;1.00;;;;;;;6.98;85.47;99983.22;4967340;28;20051;-43
2022/11/02 01:50:16;;;;;;;3.65;0.88;;;;;;;6.97;85.50;99980.81;4966700;28;20046;-42
2022/11/02 01:52:43;;;;;;;8.48;1.67;;;;;;;6.96;85.29;99976.47;4970509;28;20046;-42
2022/11/02 01:55:24;;;;;;;10.07;2.72;;;;;;;6.94;85.27;99973.22;4968126;28;20042;-42
2022/11/02 01:57:59;;;;;;;5.43;0.95;;;;;;;6.94;85.18;99973.22;4965145;28;20050;-43
2022/11/02 02:00:26;;;;;;;7.55;2.10;;;;;;;6.92;85.14;99978.28;4968516;28;20445;-42
2022/11/02 02:03:05;;;;;;;6.07;0.73;;;;;;;6.90;85.05;99969.56;4968073;28;20051;-42
2022/11/02 02:05:33;;;;;;;3.80;1.08;;;;;;;6.90;84.93;99972.31;4962813;28;20146;-42
2022/11/02 02:08:02;;;;;;;1.67;0.50;;;;;;;6.88;84.97;99978.16;4967025;28;20518;-42
2022/11/02 02:10:29;;;;;;;5.97;1.10;;;;;;;6.90;85.03;99964.06;4969606;28;20054;-42
2022/11/02 02:12:56;;;;;;;2.88;0.60;;;;;;;6.89;84.73;99959.69;4968236;28;20049;-43
2022/11/02 02:15:26;;;;;;;2.20;0.60;;;;;;;6.88;84.86;99960.84;4969017;28;20051;-45
2022/11/02 02:18:06;;;;;;;3.80;0.68;;;;;;;6.88;84.52;99969.91;4969846;28;20038;-46
2022/11/02 02:20:53;;;;;;;6.00;0.98;;;;;;;6.88;84.55;99963.59;4969918;28;20049;-42
2022/11/02 02:23:44;;;;;;;6.28;1.10;;;;;;;6.87;84.48;99967.47;4969650;28;20039;-45
2022/11/02 02:26:28;;;;;;;5.85;0.60;;;;;;;6.87;84.36;99961.97;4980189;28;20038;-42
2022/11/02 02:29:03;;;;;;;4.90;1.08;;;;;;;6.87;84.44;99957.28;4969837;28;20481;-42
2022/11/02 02:31:43;;;;;;;7.68;2.22;;;;;;;6.88;84.21;99967.16;4970119;28;20050;-42
2022/11/02 02:34:18;;;;;;;4.00;0.60;;;;;;;6.89;84.14;99965.19;4969272;28;20066;-42
2022/11/02 02:36:56;;;;;;;4.95;0.90;;;;;;;6.89;84.11;99970.69;4969915;28;20047;-42
2022/11/02 02:39:50;;;;;;;4.07;0.70;;;;;;;6.90;84.09;99967.63;4967386;28;20140;-48
2022/11/02 02:42:30;;;;;;;5.28;0.65;;;;;;;6.92;84.18;99972.75;4962021;28;20058;-43
2022/11/02 02:45:00;;;;;;;2.05;0.57;;;;;;;6.93;84.15;99972.44;4966566;28;20500;-42
2022/11/02 02:47:31;;;;;;;1.67;0.57;;;;;;;6.94;84.09;99959.47;4965778;28;20062;-48
2022/11/02 02:50:10;;;;;;;3.53;0.77;;;;;;;6.96;83.94;99954.44;4968641;28;20046;-42
2022/11/02 02:52:39;;;;;;;6.55;1.02;;;;;;;6.96;83.83;99948.94;4965637;28;20374;-42
2022/11/02 02:55:09;;;;;;;2.60;0.70;;;;;;;6.95;83.94;99961.09;4967619;28;20050;-42
2022/11/02 02:57:36;;;;;;;4.22;0.60;;;;;;;6.95;83.97;99958.34;4964946;28;20101;-43
2022/11/02 03:00:04;;;;;;;3.95;0.45;;;;;;;6.94;83.99;99957.53;4969013;28;20070;-47
2022/11/02 03:02:32;;;;;;;3.72;0.93;;;;;;;6.94;83.92;99949.25;5003943;23;20058;-43
2022/11/02 03:04:59;;;;;;;8.15;0.88;;;;;;;6.93;83.99;99955.94;4964964;28;20043;-42
2022/11/02 03:07:30;;;;;;;3.72;0.60;;;;;;;6.92;84.06;99943.31;4963316;28;20072;-43
2022/11/02 03:10:18;;;;;;;2.38;0.80;;;;;;;6.92;83.99;99950.75;4966802;28;20054;-42
2022/11/02 03:12:56;;;;;;;6.28;1.45;;;;;;;6.90;84.10;99955.81;4969627;28;20051;-44
2022/11/02 03:15:58;;;;;;;6.25;1.40;;;;;;;6.90;84.00;99967.63;4969430;28;20057;-42
2022/11/02 03:18:45;;;;;;;4.43;0.70;;;;;;;6.87;83.96;99971.03;4969418;28;20109;-42
2022/11/02 03:21:36;;;;;;;5.55;0.77;;;;;;;6.85;84.06;99972.53;4958885;28;20051;-42
2022/11/02 03:24:12;;;;;;;10.52;0.73;;;;;;;6.83;84.14;99974.81;4972320;28;20061;-42
2022/11/02 03:26:49;;;;;;;8.10;1.52;;;;;;;6.79;84.28;99982.13;4972862;28;20061;-44
2022/11/02 03:29:27;;;;;;;4.85;0.68;;;;;;;6.77;84.41;99996.22;4972354;28;20051;-43
2022/11/02 03:32:14;;;;;;;4.00;1.85;;;;;;;6.77;84.37;99973.41;4973463;28;20062;-47
2022/11/02 03:34:54;;;;;;;3.90;0.60;;;;;;;6.76;84.46;99978.09;4972060;28;20047;-43
2022/11/02 03:37:23;;;;;;;1.90;0.47;;;;;;;6.79;84.47;99977.44;4968858;28;20050;-47
2022/11/02 03:39:56;;;;;;;2.17;0.47;;;;;;;6.80;84.48;99972.75;4971843;28;20504;-42
2022/11/02 03:42:26;;;;;;;5.20;0.60;;;;;;;6.81;84.38;99966.88;4972293;28;20497;-43
2022/11/02 03:45:01;;;;;;;3.08;0.57;;;;;;;6.85;84.48;99961.53;4970260;28;20041;-42
2022/11/02 03:47:32;;;;;;;4.85;0.90;;;;;;;6.87;84.56;99961.97;4968800;28;20109;-47
2022/11/02 03:50:01;;;;;;;5.50;1.00;;;;;;;6.92;84.52;99953.50;4963056;28;20054;-43
2022/11/02 03:52:30;;;;;;;5.10;0.90;;;;;;;6.94;84.47;99956.72;4967600;28;20055;-42
2022/11/02 03:55:26;;;;;;;3.15;0.80;;;;;;;6.97;84.58;99950.53;4970586;28;20133;-44
2022/11/02 03:57:53;;;;;;;3.22;1.08;;;;;;;7.03;84.58;99943.69;4970987;28;20109;-43
2022/11/02 04:00:22;;;;;;;4.18;0.82;;;;;;;7.06;84.52;99943.00;4969932;28;20528;-44
2022/11/02 04:02:53;;;;;;;5.68;0.95;;;;;;;7.09;84.42;99947.81;4970301;28;20059;-43
2022/11/02 04:05:27;;;;;;;5.63;0.70;;;;;;;7.11;84.36;99940.84;4970718;28;20038;-43
2022/11/02 04:14:36;;;;;;;6.90;1.17;;;;;;;7.18;84.21;99943.00;4970280;28;20047;-48
2022/11/02 04:16:14;;;;;;;6.07;0.80;;;;;;;7.21;84.29;99929.38;4969899;28;20449;-48
2022/11/02 04:21:27;;;;;;;6.40;0.80;;;;;;;7.28;84.20;99928.81;4969805;28;20058;-47
2022/11/02 04:26:39;;;;;;;3.33;0.50;;;;;;;7.42;84.18;99934.78;4969646;28;20058;-42
2022/11/02 04:29:06;;;;;;;10.82;0.98;;;;;;;7.45;84.01;99936.03;4969608;28;20456;-42
2022/11/02 04:31:33;;;;;;;7.32;1.52;;;;;;;7.46;83.95;99935.72;4969006;28;20047;-46
2022/11/02 04:34:00;;;;;;;6.80;1.73;;;;;;;7.45;83.98;99931.34;4970699;28;20050;-43
2022/11/02 04:36:30;;;;;;;7.30;0.95;;;;;;;7.46;83.90;99935.72;4968603;28;20046;-49
2022/11/02 04:38:57;;;;;;;9.85;1.58;;;;;;;7.47;83.92;99925.47;4967541;28;20097;-42
2022/11/02 04:41:40;;;;;;;5.03;0.90;;;;;;;7.47;84.10;99931.78;4971106;28;20042;-42
2022/11/02 04:44:09;;;;;;;2.95;0.75;;;;;;;7.50;84.06;99931.09;4967782;28;20460;-43
2022/11/02 04:46:37;;;;;;;4.82;0.90;;;;;;;7.54;84.20;99925.72;4971055;28;20038;-44
2022/11/02 04:49:05;;;;;;;6.82;0.90;;;;;;;7.60;84.33;99929.84;4971535;28;20058;-45
2022/11/02 04:51:33;;;;;;;4.97;1.92;;;;;;;7.64;84.16;99914.22;4971621;28;20390;-42
2022/11/02 04:54:00;;;;;;;4.57;1.20;;;;;;;7.69;83.98;99925.00;4970802;28;20051;-42
2022/11/02 04:56:28;;;;;;;7.57;1.75;;;;;;;7.72;84.06;99922.38;4971075;28;20405;-45
2022/11/02 04:58:57;;;;;;;6.22;1.13;;;;;;;7.77;84.20;99918.56;4972061;28;20076;-43
2022/11/02 05:01:28;;;;;;;3.75;2.10;;;;;;;7.82;84.09;99908.13;4970841;28;20464;-45
2022/11/02 05:03:56;;;;;;;3.50;1.08;;;;;;;7.87;84.10;99907.06;4965345;28;20090;-46
2022/11/02 05:06:24;;;;;;;5.18;0.75;;;;;;;7.89;83.99;99894.56;4971235;28;20076;-42
2022/11/02 05:08:51;;;;;;;6.53;1.17;;;;;;;7.93;83.97;99891.91;4970933;28;20090;-43
2022/11/02 05:11:18;;;;;;;3.58;1.02;;;;;;;7.97;83.88;99885.34;4970964;28;20054;-43
2022/11/02 05:13:45;;;;;;;7.88;1.25;;;;;;;8.01;83.85;99898.44;4971128;28;20298;-48
2022/11/02 05:16:14;;;;;;;11.60;2.35;;;;;;;8.04;83.80;99883.97;4963316;28;20481;-43
2022/11/02 05:18:41;;;;;;;3.17;0.77;;;;;;;8.04;83.70;99884.78;4969707;28;20054;-41
2022/11/02 05:21:09;;;;;;;9.35;1.98;;;;;;;8.04;83.66;99883.97;4966373;28;20054;-41
2022/11/02 05:23:37;;;;;;;5.13;1.90;;;;;;;8.02;83.60;99869.72;4970024;28;20062;-41
2022/11/02 05:26:07;;;;;;;5.15;0.98;;;;;;;8.00;83.63;99867.31;4964979;28;20058;-41
2022/11/02 05:28:34;;;;;;;3.80;1.42;;;;;;;7.99;83.75;99877.53;4970426;28;20087;-46
2022/11/02 05:31:02;;;;;;;3.38;1.13;;;;;;;7.97;83.76;99874.31;4968224;28;20043;-42
2022/11/02 05:33:30;;;;;;;4.53;0.90;;;;;;;7.97;83.87;99860.53;4969849;28;20047;-41
2022/11/02 05:35:58;;;;;;;6.75;1.20;;;;;;;7.96;83.96;99867.22;4968670;28;20177;-40
2022/11/02 05:38:25;;;;;;;6.80;1.08;;;;;;;7.95;84.08;99859.28;4967521;28;20488;-41
2022/11/02 05:40:57;;;;;;;10.63;1.25;;;;;;;7.92;84.10;99847.00;4965826;28;20469;-40
2022/11/02 05:43:25;;;;;;;;;;;;;;;7.89;84.23;99849.66;4968534;28;20046;-43
2022/11/02 05:46:00;;;;;;;7.82;1.52;;;;;;;7.85;84.39;99841.28;4966267;28;19926;-41
2022/11/02 05:48:30;;;;;;;5.82;1.63;;;;;;;7.83;84.55;99838.09;4966910;28;20054;-42
2022/11/02 05:51:02;;;;;;;6.93;1.67;;;;;;;7.82;84.97;99842.00;4966277;28;20127;-42
2022/11/02 05:53:31;;;;;;;10.52;1.52;;;;;;;7.83;85.05;99854.63;4967437;28;20532;-49
2022/11/02 05:55:59;;;;;;;5.40;0.98;;;;;;;7.83;85.26;99846.38;4967769;28;20812;-42
2022/11/02 05:58:26;;;;;;;9.38;2.22;;;;;;;7.83;85.48;99840.84;4965441;28;20134;-44
2022/11/02 06:00:53;;;;;;;12.90;1.65;;;;;;;7.83;85.94;99846.38;4966907;28;20042;-41
2022/11/02 06:03:20;;;;;;;4.90;0.95;;;;;;;7.84;86.40;99831.41;4965790;28;20077;-42
2022/11/02 06:05:46;;;;;;;3.80;1.52;;;;;;;7.87;86.70;99797.66;4964719;28;20113;-47
2022/11/02 06:08:13;;;;;;;8.05;1.52;;;;;;;7.92;87.31;99755.25;4967940;28;20051;-41
2022/11/02 06:10:42;;;;;;;3.45;0.95;;;;;;;8.02;87.60;99748.44;4978693;28;20516;-41
2022/11/02 06:13:08;;;;;;;6.65;1.00;;;;;;;8.07;87.91;99767.50;4968818;28;20137;-43
2022/11/02 06:15:35;;;;;;;7.78;1.17;;;;;;;8.12;88.16;99764.47;4966772;28;20155;-42
2022/11/02 06:18:02;;;;;;;9.63;1.60;;;;;;;8.15;88.41;99769.28;4966899;28;20050;-49
2022/11/02 06:20:29;;;;;;;12.05;1.65;;;;;;;8.22;88.91;99747.41;4964134;28;20085;-48
2022/11/02 06:22:55;;;;;;;6.88;1.00;;;;;;;8.24;88.90;99732.13;4972798;28;20512;-42
2022/11/02 06:25:22;;;;;;;8.80;1.17;;;;;;;8.29;89.17;99720.03;4967329;28;20039;-42
2022/11/02 06:27:55;;;;;;;7.78;1.50;;;;;;;8.31;89.35;99717.75;4970150;28;20472;-41
2022/11/02 06:30:25;;;;;;;7.00;1.35;;;;;;;8.33;89.56;99715.44;4964175;28;20038;-43
2022/11/02 06:32:53;;;;;;;8.52;1.38;;;;;;;8.32;89.86;99705.56;4961692;28;20058;-43
2022/11/02 06:35:21;;;;;;;10.82;1.27;;;;;;;8.29;90.22;99697.97;4969616;28;20074;-41
2022/11/02 06:37:48;;;;;;;12.20;3.60;;;;;;;8.25;90.38;99675.81;4969875;28;20047;-41
2022/11/02 06:40:15;;;;;;;13.23;3.47;;;;;;;8.22;90.69;99670.22;4979535;28;20060;-41
2022/11/02 06:42:44;;;;;;;13.60;2.60;;;;;;;8.20;90.85;99656.78;4968536;28;20118;-41
2022/11/02 06:45:31;;;;;;;24.80;3.55;;;;;;;8.18;91.22;99647.28;4970250;28;20038;-45
2022/11/02 06:47:57;;;;;;;9.32;2.10;;;;;;;8.18;91.60;99630.75;4969958;28;20492;-42
2022/11/02 06:50:24;;;;;;;8.80;1.85;;;;;;;8.18;91.51;99620.47;4969526;28;20046;-41
2022/11/02 06:52:51;;;;;;;14.77;1.75;;;;;;;8.20;92.08;99611.88;4963095;28;20043;-45
2022/11/02 06:55:18;;;;;;;10.10;2.60;;;;;;;8.24;92.15;99601.72;4970201;28;20105;-42
2022/11/02 06:57:44;;;;;;;17.30;2.17;;;;;;;8.26;92.49;99602.19;4974737;28;20053;-40
2022/11/02 07:00:16;;;;;;;13.25;1.80;;;;;;;8.29;92.65;99595.97;4969340;28;20050;-41
2022/11/02 07:03:03;;;;;;;11.10;2.08;;;;;;;8.34;92.78;99581.94;4967897;28;20047;-43
2022/11/02 07:05:31;;;;;;;12.55;2.03;;;;;;;8.36;92.67;99576.84;4969971;28;20126;-47
2022/11/02 07:07:58;;;;;;;9.20;2.00;;;;;;;8.39;92.87;99567.84;4972626;28;20050;-41
2022/11/02 07:10:26;;;;;;;19.98;2.55;;;;;;;8.42;93.17;99558.84;4970157;28;20051;-43
2022/11/02 07:12:54;;;;;;;12.93;2.53;;;;;;;8.47;93.37;99561.34;4970688;28;20046;-45
2022/11/02 07:15:23;;;;;;;10.90;3.35;;;;;;;8.51;93.49;99553.94;4964724;28;20047;-41
2022/11/02 07:17:50;;;;;;;10.90;2.78;;;;;;;8.55;93.70;99558.38;4966914;28;20046;-42
2022/11/02 07:20:17;;;;;;;11.93;3.33;;;;;;;8.60;93.62;99551.78;4964020;28;20055;-48
2022/11/02 07:22:58;;;;;;;17.88;4.32;;;;;;;8.63;93.80;99531.72;4967234;28;20496;-42
2022/11/02 07:25:27;;;;;;;19.05;4.43;;;;;;;8.68;93.85;99534.22;4970078;28;20050;-41
2022/11/02 07:27:53;;;;;;;14.50;3.03;;;;;;;8.73;93.77;99539.47;4970990;28;20046;-44
2022/11/02 07:30:20;;;;;;;17.88;2.70;;;;;;;8.76;93.79;99530.47;4967840;28;20046;-41
2022/11/02 07:32:47;;;;;;;24.42;2.95;;;;;;;8.83;93.86;99536.13;4965249;28;20126;-42
2022/11/02 07:35:15;;;;;;;10.05;2.60;;;;;;;8.92;93.97;99535.91;4972032;28;20127;-44
2022/11/02 07:37:42;;;;;;;13.10;2.78;;;;;;;9.00;93.72;99516.34;4972832;28;20046;-40
2022/11/02 07:40:10;;;;;;;19.42;2.60;;;;;;;9.08;93.66;99512.56;4971582;28;20043;-44
2022/11/02 07:42:45;;;;;;;20.83;4.15;;;;;;;9.16;93.70;99522.56;4972917;28;20050;-43
2022/11/02 07:45:12;;;;;;;13.75;2.78;;;;;;;9.22;93.47;99522.28;4972876;28;20046;-43
2022/11/02 07:47:45;;;;;;;22.02;2.67;;;;;;;9.29;93.19;99508.63;4972971;28;20417;-44
2022/11/02 07:50:14;;;;;;;17.55;3.42;;;;;;;9.34;93.42;99462.16;4971907;28;20057;-45
2022/11/02 07:52:52;;;;;;;15.73;3.45;;;;;;;9.40;93.29;99476.47;4970432;28;20046;-41
2022/11/02 07:55:21;;;;;;;17.40;3.20;;;;;;;9.44;93.24;99477.31;4971965;28;20547;-43
2022/11/02 07:57:56;;;;;;;18.20;2.72;;;;;;;9.50;93.43;99476.66;4971949;28;20051;-42
2022/11/02 08:00:25;;;;;;;15.88;2.95;;;;;;;9.58;93.15;99467.28;4972474;28;20515;-46
2022/11/02 08:02:55;;;;;;;9.80;2.80;;;;;;;9.65;93.12;99475.72;4972489;28;20126;-42
2022/11/02 08:05:23;;;;;;;15.45;3.38;;;;;;;9.71;92.82;99465.16;4970240;28;20150;-42
2022/11/02 08:08:00;;;;;;;23.98;5.40;;;;;;;9.75;92.88;99460.47;4971633;28;20058;-42
2022/11/02 08:10:29;;;;;;;8.68;1.85;;;;;;;9.78;92.55;99445.91;4972276;28;20567;-42
2022/11/02 08:13:02;;;;;;;13.07;3.75;;;;;;;9.79;92.70;99450.28;4972266;28;20421;-42
2022/11/02 08:15:29;;;;;;;12.13;3.00;;;;;;;9.79;92.58;99433.69;4972420;28;20043;-44
2022/11/02 08:18:23;;;;;;;15.23;2.83;;;;;;;9.81;92.83;99436.88;4964776;28;20067;-41
2022/11/02 08:20:50;;;;;;;7.78;1.80;;;;;;;9.81;92.71;99414.75;4968119;28;20536;-48
2022/11/02 08:23:19;;;;;;;6.22;1.80;;;;;;;9.82;92.72;99399.78;4970351;28;20039;-41
2022/11/02 08:25:53;;;;;;;19.10;5.00;;;;;;;9.83;92.89;99379.25;4965181;28;20079;-41
2022/11/02 14:08:38;;;;;;;20.38;4.93;;;;;;;12.61;80.36;98475.94;4787054;27;8272075;-47
2022/11/02 14:11:34;;;;;;;18.50;2.92;;;;;;;12.63;79.87;98490.19;5026045;28;20057;-44
2022/11/02 14:14:09;;;;;;;16.88;4.55;;;;;;;12.64;80.19;98497.31;5024652;28;20049;-45
2022/11/02 14:16:45;;;;;;;23.30;4.75;;;;;;;12.66;79.80;98489.38;5026096;28;20057;-42
2022/11/02 14:19:23;;;;;;;18.42;4.80;;;;;;;12.63;79.74;98495.75;5024535;28;20379;-41
2022/11/02 14:21:51;;;;;;;21.05;4.38;;;;;;;12.65;79.26;98498.13;5025606;28;20053;-42
2022/11/02 14:24:33;;;;;;;40.13;6.05;;;;;;;12.69;78.70;98484.97;5024791;28;20365;-47
2022/11/02 14:27:03;;;;;;;17.85;4.55;;;;;;;12.69;78.75;98499.66;5022829;28;20053;-43
2022/11/02 14:29:45;;;;;;;21.35;6.07;;;;;;;12.72;78.35;98484.94;5015658;28;20049;-44
2022/11/02 14:32:29;;;;;;;26.73;5.70;;;;;;;12.72;77.85;98476.63;5025668;28;20046;-42
2022/11/02 14:35:25;;;;;;;22.42;5.18;;;;;;;12.72;77.44;98482.16;5023519;28;20140;-44
2022/11/02 14:38:00;;;;;;;24.23;5.38;;;;;;;12.66;77.15;98483.81;5013972;28;20141;-43
2022/11/02 14:40:44;;;;;;;24.52;5.10;;;;;;;12.62;77.18;98477.53;5025034;28;20054;-41
2022/11/02 14:43:32;;;;;;;23.60;4.18;;;;;;;12.56;75.76;98486.69;5011211;28;20042;-42
2022/11/02 14:46:20;;;;;;;19.00;4.80;;;;;;;12.52;75.78;98486.72;5020403;28;20053;-42
2022/11/02 14:48:56;;;;;;;25.90;5.72;;;;;;;12.48;75.49;98515.72;5022117;28;20049;-42
2022/11/02 14:51:26;;;;;;;20.02;3.75;;;;;;;12.43;75.38;98469.78;5025750;28;20119;-43
2022/11/02 14:54:01;;;;;;;16.13;4.32;;;;;;;12.41;74.82;98490.84;5016999;28;20046;-42
2022/11/02 14:56:59;;;;;;;24.05;6.03;;;;;;;12.39;74.50;98479.38;5025082;28;20049;-41
2022/11/02 14:59:49;;;;;;;24.55;6.07;;;;;;;12.38;74.72;98475.81;5019514;28;20057;-42
2022/11/02 15:02:21;;;;;;;29.83;6.00;;;;;;;12.39;75.24;98465.50;5022252;28;20423;-42
2022/11/02 15:04:50;;;;;;;;;;;;;;;12.34;74.27;98469.47;5019984;28;20111;-43
2022/11/02 15:07:21;;;;;;;17.67;4.75;;;;;;;12.33;74.79;98442.16;5034072;28;20020;-42
2022/11/02 15:09:55;;;;;;;18.45;3.50;;;;;;;12.29;74.43;98458.84;5033102;28;20049;-46
2022/11/02 15:12:43;;;;;;;24.88;4.55;;;;;;;12.26;73.90;98462.44;5042699;28;20124;-42
2022/11/02 15:15:35;;;;;;;22.80;5.75;;;;;;;12.24;73.53;98473.16;5037241;28;20879;-51
2022/11/02 15:18:21;;;;;;;31.47;7.53;;;;;;;12.22;72.74;98470.00;5042344;28;20391;-45
2022/11/02 15:21:09;;;;;;;18.08;4.00;;;;;;;12.22;71.80;98470.00;5025047;28;20513;-42
2022/11/02 15:23:45;;;;;;;19.70;3.80;;;;;;;12.22;72.27;98461.69;5028929;28;20084;-42
2022/11/02 15:26:29;;;;;;;22.55;4.47;;;;;;;12.18;72.11;98470.03;5027875;28;20037;-49
2022/11/02 15:29:01;;;;;;;24.88;4.88;;;;;;;12.17;71.96;98473.25;5031457;28;20045;-42
2022/11/02 15:31:28;;;;;;;19.83;4.43;;;;;;;12.14;71.52;98480.41;5026593;28;20045;-42
2022/11/02 15:33:57;;;;;;;25.77;4.35;;;;;;;12.12;71.89;98470.91;5026146;28;20053;-42
2022/11/02 15:36:38;;;;;;;23.35;7.55;;;;;;;12.10;71.78;98468.53;5028491;28;20068;-46
2022/11/02 15:39:07;;;;;;;27.58;4.40;;;;;;;12.07;72.04;98493.53;5024757;28;20605;-44
2022/11/02 15:41:43;;;;;;;24.55;5.93;;;;;;;12.03;71.59;98473.34;5025656;28;20045;-46
2022/11/02 15:44:35;;;;;;;18.48;5.95;;;;;;;11.98;71.28;98476.56;5027944;28;20045;-43
2022/11/02 15:47:14;;;;;;;24.63;5.28;;;;;;;11.92;71.28;98478.19;5026951;28;20053;-42
2022/11/02 15:50:18;;;;;;;23.55;5.88;;;;;;;11.89;71.00;98479.00;5029681;28;20053;-45
2022/11/02 15:53:19;;;;;;;18.90;4.50;;;;;;;11.87;71.06;98496.06;5024543;28;20049;-42
2022/11/02 15:56:25;;;;;;;18.73;4.18;;;;;;;11.83;70.50;98491.75;5023986;28;20415;-42
2022/11/02 15:59:10;;;;;;;16.67;3.92;;;;;;;11.80;70.40;98493.38;5020007;28;20045;-42
2022/11/02 16:01:38;;;;;;;27.95;5.97;;;;;;;11.75;70.31;98493.00;5020235;28;20051;-42
2022/11/02 16:04:07;;;;;;;20.50;3.63;;;;;;;11.70;70.20;98488.69;5030092;28;20033;-44
2022/11/02 16:06:38;;;;;;;30.30;7.05;;;;;;;11.67;70.25;98491.44;5029386;28;20111;-47
2022/11/02 16:09:36;;;;;;;16.50;5.25;;;;;;;11.63;70.09;98492.25;5030745;28;20495;-47
2022/11/02 16:12:15;;;;;;;18.23;3.67;;;;;;;11.62;70.27;98471.28;5030761;28;20060;-42
2022/11/02 16:14:43;;;;;;;16.08;4.00;;;;;;;11.63;70.01;98483.94;5029807;28;20109;-44
2022/11/02 16:17:30;;;;;;;18.52;4.97;;;;;;;11.60;70.04;98483.97;5024235;28;20128;-45
2022/11/02 16:20:24;;;;;;;21.77;4.20;;;;;;;11.54;70.42;98491.91;5024507;28;20055;-43
2022/11/02 16:22:58;;;;;;;25.88;4.15;;;;;;;11.50;70.72;98477.31;5028533;28;20410;-46
2022/11/02 16:25:47;;;;;;;22.60;4.45;;;;;;;11.47;70.40;98494.75;5022542;28;20049;-43
2022/11/02 16:28:46;;;;;;;27.05;5.40;;;;;;;11.43;70.44;98485.69;5022617;28;20399;-42
2022/11/02 16:31:16;;;;;;;14.35;4.03;;;;;;;11.39;70.87;98506.25;5013937;28;20061;-42
2022/11/02 16:33:51;;;;;;;25.33;5.78;;;;;;;11.35;71.08;98483.34;5028719;28;20151;-42
2022/11/02 16:36:29;;;;;;;19.08;4.35;;;;;;;11.30;70.70;98473.50;5026915;28;20124;-42
2022/11/02 16:39:12;;;;;;;17.52;5.75;;;;;;;11.29;71.04;98476.66;5027804;28;20053;-47
2022/11/02 16:41:40;;;;;;;16.10;6.50;;;;;;;11.23;71.15;98481.81;5017725;28;20049;-42
2022/11/02 16:44:28;;;;;;;21.50;3.72;;;;;;;11.19;71.23;98485.81;5028207;28;20140;-44
2022/11/02 16:47:07;;;;;;;16.65;4.20;;;;;;;11.16;71.07;98487.41;5020074;28;20038;-43
2022/11/02 16:49:49;;;;;;;18.80;4.75;;;;;;;11.13;70.87;98482.69;5023731;28;20049;-43
2022/11/02 16:52:16;;;;;;;;;;;;;;;11.12;70.61;98492.16;5027295;28;20084;-42
2022/11/02 16:54:43;;;;;;;11.93;3.38;;;;;;;11.10;71.10;98483.47;5026719;28;20032;-42
2022/11/02 16:57:13;;;;;;;19.92;3.58;;;;;;;11.10;70.91;98502.06;5026665;28;20462;-43
2022/11/02 16:59:58;;;;;;;25.70;3.53;;;;;;;11.11;70.62;98512.75;5024645;28;20053;-43
2022/11/02 17:02:33;;;;;;;9.95;2.67;;;;;;;11.09;70.81;98501.31;5022631;28;20065;-43
2022/11/02 17:05:02;;;;;;;15.25;2.60;;;;;;;11.09;70.35;98492.19;5027095;28;20037;-47
2022/11/02 17:07:41;;;;;;;12.30;2.08;;;;;;;11.07;70.11;98506.44;5023664;28;20053;-46
2022/11/02 17:10:18;;;;;;;8.85;2.85;;;;;;;11.05;69.81;98508.81;5022461;28;20045;-42
2022/11/02 17:12:47;;;;;;;13.15;3.13;;;;;;;11.04;69.94;98504.47;5023139;28;20064;-45
2022/11/02 17:15:18;;;;;;;7.63;1.75;;;;;;;11.00;69.94;98512.00;5025202;28;20053;-46
2022/11/02 17:17:45;;;;;;;9.43;1.83;;;;;;;10.97;69.62;98496.19;5022318;28;20463;-43
2022/11/02 17:20:15;;;;;;;11.57;2.97;;;;;;;10.94;69.91;98508.06;5024090;28;20723;-42
2022/11/02 17:22:55;;;;;;;13.15;3.30;;;;;;;10.90;69.73;98513.66;5025822;28;20038;-48
2022/11/02 17:25:33;;;;;;;12.80;2.67;;;;;;;10.86;69.71;98501.00;5027556;28;20037;-42
2022/11/02 17:28:02;;;;;;;13.85;2.92;;;;;;;10.85;69.84;98524.34;5027654;28;20049;-45
2022/11/02 17:30:32;;;;;;;11.57;2.40;;;;;;;10.83;69.88;98523.94;5012851;28;20064;-46
2022/11/02 17:33:08;;;;;;;16.45;2.72;;;;;;;10.81;69.99;98526.31;5020106;28;20409;-43
2022/11/02 17:35:35;;;;;;;15.23;2.75;;;;;;;10.79;70.07;98540.56;5023031;28;20052;-48
2022/11/02 17:38:02;;;;;;;10.60;2.28;;;;;;;10.78;69.93;98543.72;5020200;28;20063;-43
2022/11/02 17:40:30;;;;;;;7.90;2.17;;;;;;;10.76;70.46;98518.41;5019539;28;20049;-43
2022/11/02 17:42:57;;;;;;;10.40;2.03;;;;;;;10.76;70.16;98523.97;5018038;28;20045;-44
2022/11/02 17:45:28;;;;;;;11.90;3.10;;;;;;;10.77;70.31;98553.22;5021752;28;20049;-43
2022/11/02 17:48:00;;;;;;;12.48;2.38;;;;;;;10.76;70.48;98551.63;5022954;28;20052;-42
2022/11/02 17:50:30;;;;;;;8.13;2.28;;;;;;;10.73;70.69;98569.03;5026117;28;20057;-44
2022/11/02 17:52:58;;;;;;;8.48;2.38;;;;;;;10.69;70.48;98558.00;5021452;28;20494;-42
2022/11/02 17:55:28;;;;;;;8.60;3.28;;;;;;;10.72;70.58;98550.88;5024717;28;20061;-42